createdAt,value
2022-08-22T00:02:26.737Z,9.77
2022-08-22T00:03:02.260Z,11.57
2022-08-22T00:07:32.425Z,9.27
2022-08-22T00:13:09.969Z,9.00
2022-08-22T00:18:37.085Z,8.25
2022-08-22T00:24:07.062Z,10.20
2022-08-22T00:29:16.582Z,8.23
2022-08-22T00:34:40.081Z,12.88
2022-08-22T00:40:05.148Z,7.05
2022-08-22T00:45:37.211Z,9.77
2022-08-22T00:50:39.105Z,9.10
2022-08-22T00:55:49.953Z,9.95
2022-08-22T01:01:09.431Z,16.42
2022-08-22T01:06:30.354Z,11.77
2022-08-22T01:11:50.646Z,9.77
2022-08-22T01:17:00.417Z,10.18
2022-08-22T01:22:14.104Z,8.68
2022-08-22T01:27:44.704Z,5.57
2022-08-22T01:33:06.898Z,10.02
2022-08-22T01:38:29.861Z,9.20
2022-08-22T01:43:51.191Z,8.95
2022-08-22T01:49:16.246Z,10.10
2022-08-22T01:54:36.918Z,7.32
2022-08-22T01:59:47.323Z,8.75
2022-08-22T02:05:22.385Z,9.15
2022-08-22T02:10:48.815Z,9.05
2022-08-22T02:16:00.642Z,10.32
2022-08-22T02:21:16.486Z,9.30
2022-08-22T02:26:29.570Z,10.20
2022-08-22T02:31:44.317Z,9.63
2022-08-22T02:36:53.898Z,7.95
2022-08-22T02:42:06.493Z,7.38
2022-08-22T02:47:51.302Z,6.10
2022-08-22T02:52:58.980Z,8.68
2022-08-22T02:58:12.951Z,8.77
2022-08-22T03:03:31.862Z,13.30
2022-08-22T03:08:38.001Z,7.53
2022-08-22T03:14:07.847Z,6.32
2022-08-22T03:19:24.208Z,9.55
2022-08-22T03:24:39.992Z,9.85
2022-08-22T03:30:14.981Z,9.05
2022-08-22T03:35:58.709Z,9.77
2022-08-22T03:41:41.866Z,10.13
2022-08-22T03:47:35.335Z,8.80
2022-08-22T03:53:07.646Z,12.43
2022-08-22T03:59:02.100Z,14.23
2022-08-22T04:04:32.062Z,4.88
2022-08-22T04:09:52.521Z,10.65
2022-08-22T04:15:31.156Z,13.55
2022-08-22T04:20:56.743Z,21.05
2022-08-22T04:26:12.648Z,22.08
2022-08-22T04:31:18.837Z,15.05
2022-08-22T04:36:23.769Z,11.90
2022-08-22T04:41:51.674Z,9.18
2022-08-22T04:47:08.204Z,7.37
2022-08-22T04:52:18.497Z,4.50
2022-08-22T04:57:36.244Z,7.60
2022-08-22T05:02:44.679Z,8.13
2022-08-22T05:08:00.007Z,10.60
2022-08-22T05:13:24.617Z,8.30
2022-08-22T05:18:43.041Z,13.10
2022-08-22T05:29:00.052Z,7.55
2022-08-22T05:34:14.882Z,8.30
2022-08-22T05:39:21.649Z,7.03
2022-08-22T05:44:34.109Z,8.27
2022-08-22T05:49:54.045Z,4.18
2022-08-22T05:55:17.851Z,6.10
2022-08-22T06:00:23.250Z,6.55
2022-08-22T06:05:31.994Z,6.70
2022-08-22T06:10:41.716Z,3.65
2022-08-22T06:15:51.661Z,7.50
2022-08-22T06:21:02.850Z,6.25
2022-08-22T06:26:05.844Z,2.60
2022-08-22T06:31:29.446Z,5.28
2022-08-22T06:41:39.689Z,3.95
2022-08-22T06:46:52.267Z,3.00
2022-08-22T06:52:01.743Z,5.07
2022-08-22T06:57:06.650Z,3.78
2022-08-22T07:02:38.053Z,3.95
2022-08-22T07:07:40.021Z,3.88
2022-08-22T07:12:46.701Z,3.13
2022-08-22T07:17:53.556Z,4.20
2022-08-22T07:22:57.637Z,5.05
2022-08-22T07:28:51.133Z,7.25
2022-08-22T07:34:26.057Z,5.43
2022-08-22T07:39:37.096Z,4.75
2022-08-22T07:44:50.056Z,5.20
2022-08-22T07:50:00.280Z,4.85
2022-08-22T07:55:15.538Z,4.60
2022-08-22T08:00:20.438Z,6.57
2022-08-22T08:05:27.644Z,3.72
2022-08-22T08:10:34.477Z,6.40
2022-08-22T08:15:39.302Z,4.35
2022-08-22T08:20:41.425Z,5.47
2022-08-22T08:26:05.569Z,4.40
2022-08-22T08:31:14.006Z,6.60
2022-08-22T08:36:52.261Z,6.28
2022-08-22T08:41:59.826Z,3.80
2022-08-22T08:47:32.682Z,5.35
2022-08-22T08:53:12.678Z,3.60
2022-08-22T08:59:10.274Z,7.22
2022-08-22T09:04:24.982Z,6.35
2022-08-22T09:09:37.626Z,3.67
2022-08-22T09:15:05.537Z,5.55
2022-08-22T09:20:30.537Z,6.05
2022-08-22T09:25:40.536Z,5.93
2022-08-22T09:30:56.935Z,10.60
2022-08-22T09:36:25.956Z,5.38
2022-08-22T09:42:08.156Z,3.85
2022-08-22T09:47:26.512Z,5.75
2022-08-22T09:53:10.616Z,4.68
2022-08-22T09:58:41.681Z,6.80
2022-08-22T10:04:19.314Z,5.15
2022-08-22T10:09:24.212Z,5.53
2022-08-22T10:14:50.522Z,4.57
2022-08-22T10:20:17.582Z,4.07
2022-08-22T10:25:33.382Z,6.85
2022-08-22T10:31:04.169Z,5.95
2022-08-22T10:36:15.909Z,5.35
2022-08-22T10:41:25.292Z,4.50
2022-08-22T10:46:42.173Z,6.95
2022-08-22T10:52:06.504Z,3.55
2022-08-22T10:57:20.732Z,4.32
2022-08-22T11:02:42.399Z,6.32
2022-08-22T11:07:50.229Z,3.83
2022-08-22T11:13:10.750Z,4.35
2022-08-22T11:19:14.962Z,4.53
2022-08-22T11:24:57.063Z,3.22
2022-08-22T11:30:19.902Z,3.15
2022-08-22T11:35:31.661Z,4.55
2022-08-22T11:40:42.554Z,2.53
2022-08-22T11:45:48.234Z,5.05
2022-08-22T11:51:13.511Z,3.42
2022-08-22T11:56:34.475Z,2.88
2022-08-22T12:01:49.102Z,3.83
2022-08-22T12:06:57.660Z,3.72
2022-08-22T12:12:05.955Z,2.43
2022-08-22T12:17:07.766Z,3.28
2022-08-22T12:22:51.625Z,3.28
2022-08-22T12:28:29.717Z,4.53
2022-08-22T12:33:53.243Z,2.10
2022-08-22T12:39:26.175Z,3.70
2022-08-22T12:44:33.978Z,5.65
2022-08-22T12:50:03.818Z,2.95
2022-08-22T12:55:14.516Z,2.00
2022-08-22T13:00:31.966Z,2.83
2022-08-22T13:05:41.072Z,6.65
2022-08-22T13:10:51.185Z,3.15
2022-08-22T13:16:11.713Z,4.07
2022-08-22T13:21:17.926Z,4.00
2022-08-22T13:26:33.570Z,3.47
2022-08-22T13:31:42.187Z,4.93
2022-08-22T13:36:52.139Z,4.63
2022-08-22T13:42:00.288Z,4.57
2022-08-22T13:47:14.336Z,5.75
2022-08-22T13:52:41.249Z,4.60
2022-08-22T13:57:51.771Z,3.42
2022-08-22T14:03:08.121Z,4.15
2022-08-22T14:08:31.833Z,4.27
2022-08-22T14:13:36.737Z,4.20
2022-08-22T14:18:49.330Z,2.83
2022-08-22T14:23:53.492Z,3.88
2022-08-22T14:28:58.886Z,3.58
2022-08-22T14:34:10.641Z,4.38
2022-08-22T14:39:38.310Z,3.75
2022-08-22T14:45:22.327Z,4.70
2022-08-22T14:50:56.763Z,4.63
2022-08-22T14:56:19.087Z,5.10
2022-08-22T15:01:25.031Z,4.00
2022-08-22T15:06:47.805Z,4.68
2022-08-22T15:11:50.277Z,3.85
2022-08-22T15:16:59.352Z,3.72
2022-08-22T15:22:08.696Z,5.97
2022-08-22T15:27:20.581Z,6.93
2022-08-22T15:32:41.750Z,5.75
2022-08-22T15:37:57.037Z,6.22
2022-08-22T15:43:10.589Z,5.72
2022-08-22T15:48:30.169Z,8.50
2022-08-22T15:53:52.568Z,4.95
2022-08-22T15:59:26.110Z,7.20
2022-08-22T16:04:53.004Z,6.75
2022-08-22T16:09:58.353Z,5.85
2022-08-22T16:15:05.232Z,6.47
2022-08-22T16:20:17.506Z,7.13
2022-08-22T16:25:44.448Z,4.35
2022-08-22T16:30:46.720Z,4.88
2022-08-22T16:36:14.889Z,4.13
2022-08-22T16:41:28.874Z,6.00
2022-08-22T16:46:36.379Z,4.88
2022-08-22T16:52:20.332Z,4.45
2022-08-22T16:57:34.122Z,5.70
2022-08-22T17:03:08.825Z,6.30
2022-08-22T17:08:30.074Z,3.72
2022-08-22T17:13:51.451Z,3.78
2022-08-22T17:19:30.493Z,2.83
2022-08-22T17:24:47.363Z,4.38
2022-08-22T17:30:07.146Z,3.38
2022-08-22T17:35:41.215Z,5.57
2022-08-22T17:40:55.813Z,8.10
2022-08-22T17:46:28.748Z,5.32
2022-08-22T17:51:34.314Z,3.95
2022-08-22T17:57:05.157Z,3.90
2022-08-22T18:02:16.535Z,3.00
2022-08-22T18:07:38.872Z,3.15
2022-08-22T18:13:06.945Z,3.58
2022-08-22T18:18:31.291Z,3.08
2022-08-22T18:24:07.025Z,2.53
2022-08-22T18:29:26.513Z,3.45
2022-08-22T18:35:03.918Z,4.28
2022-08-22T18:40:36.803Z,2.17
2022-08-22T18:45:49.713Z,2.25
2022-08-22T18:50:51.862Z,5.25
2022-08-22T18:56:07.245Z,4.35
2022-08-22T19:01:44.214Z,2.85
2022-08-22T19:07:10.101Z,3.47
2022-08-22T19:12:33.199Z,3.58
2022-08-22T19:18:12.598Z,2.95
2022-08-22T19:23:32.898Z,2.35
2022-08-22T19:28:37.703Z,2.35
2022-08-22T19:33:41.928Z,2.28
2022-08-22T19:38:50.029Z,2.90
2022-08-22T19:48:54.602Z,4.07
2022-08-22T19:54:08.496Z,3.55
2022-08-22T19:59:27.309Z,4.47
2022-08-22T20:05:12.461Z,4.10
2022-08-22T20:10:57.460Z,3.05
2022-08-22T20:16:34.323Z,2.55
2022-08-22T20:21:59.150Z,3.33
2022-08-22T20:27:14.726Z,3.45
2022-08-22T20:32:20.269Z,4.68
2022-08-22T20:37:40.343Z,2.95
2022-08-22T20:42:51.527Z,3.50
2022-08-22T20:47:53.506Z,2.35
2022-08-22T20:53:14.666Z,5.03
2022-08-22T20:58:39.928Z,3.70
2022-08-22T21:03:48.723Z,3.70
2022-08-22T21:09:10.561Z,3.60
2022-08-22T21:14:23.974Z,3.22
2022-08-22T21:19:29.334Z,2.80
2022-08-22T21:24:31.216Z,2.42
2022-08-22T21:29:34.846Z,2.83
2022-08-22T21:34:49.477Z,4.00
2022-08-22T21:40:00.179Z,2.33
2022-08-22T21:45:11.854Z,2.38
2022-08-22T21:50:25.630Z,2.45
2022-08-22T21:55:34.820Z,4.18
2022-08-22T22:00:48.710Z,3.20
2022-08-22T22:05:52.891Z,2.80
2022-08-22T22:10:57.751Z,2.97
2022-08-22T22:16:00.305Z,2.95
2022-08-22T22:21:02.286Z,2.78
2022-08-22T22:26:05.790Z,3.38
2022-08-22T22:31:09.030Z,5.03
2022-08-22T22:36:15.450Z,4.43
2022-08-22T22:41:19.131Z,2.58
2022-08-22T22:46:22.478Z,2.75
2022-08-22T22:51:25.858Z,4.65
2022-08-22T22:56:28.008Z,4.32
2022-08-22T23:01:29.818Z,2.45
2022-08-22T23:06:32.776Z,2.67
2022-08-22T23:11:35.757Z,3.63
2022-08-22T23:16:39.906Z,3.53
2022-08-22T23:21:44.193Z,2.58
2022-08-22T23:26:46.044Z,4.18
2022-08-22T23:31:53.797Z,4.18
2022-08-22T23:36:57.478Z,3.88
2022-08-22T23:42:01.671Z,4.63
2022-08-22T23:47:05.189Z,3.53
2022-08-22T23:52:08.097Z,2.85
2022-08-22T23:57:12.025Z,3.70
